createdAt,value
2022-08-19T00:01:42.855Z,17.92
2022-08-19T00:04:12.937Z,18.48
2022-08-19T00:06:41.395Z,18.92
2022-08-19T00:09:11.306Z,20.42
2022-08-19T00:11:38.618Z,19.65
2022-08-19T00:14:08.337Z,19.05
2022-08-19T00:16:35.360Z,19.98
2022-08-19T00:19:01.862Z,19.60
2022-08-19T00:21:28.577Z,20.60
2022-08-19T00:23:59.223Z,18.60
2022-08-19T00:26:27.942Z,21.77
2022-08-19T00:28:55.353Z,20.15
2022-08-19T00:31:22.662Z,20.85
2022-08-19T00:33:51.538Z,20.08
2022-08-19T00:36:18.749Z,20.58
2022-08-19T00:38:45.732Z,21.33
2022-08-19T00:41:19.089Z,21.70
2022-08-19T00:44:05.517Z,20.85
2022-08-19T00:46:34.293Z,20.13
2022-08-19T00:49:03.383Z,20.27
2022-08-19T00:51:33.503Z,20.73
2022-08-19T00:54:02.176Z,19.42
2022-08-19T00:56:29.897Z,19.00
2022-08-19T00:58:59.287Z,19.85
2022-08-19T01:01:26.638Z,20.65
2022-08-19T01:03:57.533Z,20.55
2022-08-19T01:06:26.522Z,20.90
2022-08-19T01:08:53.517Z,19.73
2022-08-19T01:11:20.525Z,20.80
2022-08-19T01:13:49.907Z,21.00
2022-08-19T01:16:18.972Z,21.60
2022-08-19T01:18:45.777Z,19.55
2022-08-19T01:21:25.535Z,20.23
2022-08-19T01:23:52.335Z,20.48
2022-08-19T01:26:22.659Z,19.67
2022-08-19T01:28:54.840Z,19.98
2022-08-19T01:31:32.822Z,20.55
2022-08-19T01:34:00.887Z,20.20
2022-08-19T01:36:42.891Z,22.38
2022-08-19T01:39:12.942Z,26.40
2022-08-19T01:41:40.120Z,23.40
2022-08-19T01:44:17.773Z,23.63
2022-08-19T01:46:46.271Z,21.42
2022-08-19T01:49:13.269Z,22.55
2022-08-19T01:51:40.605Z,22.92
2022-08-19T01:54:12.680Z,22.27
2022-08-19T01:56:39.762Z,21.92
2022-08-19T01:59:15.357Z,23.08
2022-08-19T02:01:42.295Z,23.23
2022-08-19T02:04:09.148Z,23.50
2022-08-19T02:06:36.325Z,22.77
2022-08-19T02:09:04.377Z,22.10
2022-08-19T02:11:34.417Z,22.67
2022-08-19T02:14:03.231Z,22.95
2022-08-19T02:16:31.384Z,22.25
2022-08-19T02:18:58.266Z,22.77
2022-08-19T02:21:25.357Z,23.90
2022-08-19T02:23:52.076Z,22.20
2022-08-19T02:26:19.753Z,23.83
2022-08-19T02:31:20.082Z,21.27
2022-08-19T02:33:47.090Z,23.08
2022-08-19T02:36:15.855Z,21.75
2022-08-19T02:38:43.064Z,22.52
2022-08-19T02:41:19.629Z,23.42
2022-08-19T02:44:29.201Z,22.35
2022-08-19T02:49:03.668Z,22.60
2022-08-19T02:51:34.535Z,23.58
2022-08-19T02:54:02.208Z,23.45
2022-08-19T02:58:56.777Z,22.48
2022-08-19T03:01:28.764Z,23.55
2022-08-19T03:03:56.912Z,23.63
2022-08-19T03:06:24.537Z,22.33
2022-08-19T03:11:24.158Z,24.13
2022-08-19T03:13:51.856Z,22.58
2022-08-19T03:18:50.182Z,22.50
2022-08-19T03:23:48.225Z,24.05
2022-08-19T03:26:17.126Z,24.17
2022-08-19T03:28:51.695Z,23.42
2022-08-19T03:31:44.049Z,23.25
2022-08-19T03:34:22.506Z,22.70
2022-08-19T03:36:49.396Z,23.02
2022-08-19T03:39:17.631Z,24.37
2022-08-19T03:41:48.332Z,22.27
2022-08-19T03:44:18.677Z,22.30
2022-08-19T03:46:47.686Z,23.17
2022-08-19T03:49:14.823Z,23.38
2022-08-19T03:51:43.417Z,23.40
2022-08-19T03:54:13.888Z,23.30
2022-08-19T03:56:42.912Z,22.67
2022-08-19T03:59:13.900Z,24.23
2022-08-19T04:01:42.027Z,22.90
2022-08-19T04:04:09.441Z,23.45
2022-08-19T04:06:39.791Z,23.88
2022-08-19T04:09:09.853Z,23.60
2022-08-19T04:11:44.559Z,24.05
2022-08-19T04:14:15.167Z,24.13
2022-08-19T04:16:42.668Z,23.02
2022-08-19T04:19:09.353Z,23.17
2022-08-19T04:21:36.017Z,22.42
2022-08-19T04:24:03.891Z,23.75
2022-08-19T04:26:33.504Z,21.90
2022-08-19T04:29:02.430Z,23.75
2022-08-19T04:31:31.894Z,22.67
2022-08-19T04:34:00.904Z,23.88
2022-08-19T04:36:30.174Z,25.92
2022-08-19T04:38:59.104Z,25.77
2022-08-19T04:41:45.354Z,25.20
2022-08-19T04:44:13.084Z,24.77
2022-08-19T04:46:51.010Z,26.23
2022-08-19T04:49:22.882Z,27.10
2022-08-19T04:51:51.426Z,27.90
2022-08-19T04:54:37.267Z,25.95
2022-08-19T04:57:07.959Z,25.10
2022-08-19T04:59:35.406Z,24.45
2022-08-19T05:02:01.981Z,25.98
2022-08-19T05:04:32.088Z,27.15
2022-08-19T05:07:00.797Z,26.77
2022-08-19T05:09:28.372Z,25.88
2022-08-19T05:12:14.925Z,28.02
2022-08-19T05:14:41.463Z,28.70
2022-08-19T05:17:26.443Z,28.55
2022-08-19T05:20:13.463Z,26.87
2022-08-19T05:22:40.311Z,31.05
2022-08-19T05:25:12.931Z,33.77
2022-08-19T05:27:40.923Z,33.75
2022-08-19T05:30:08.214Z,31.50
2022-08-19T05:32:34.886Z,30.58
2022-08-19T05:35:01.589Z,28.90
2022-08-19T05:37:28.607Z,30.77
2022-08-19T05:39:56.270Z,45.75
2022-08-19T06:33:40.614Z,59.13
2022-08-19T06:36:08.452Z,58.75
2022-08-19T06:38:34.962Z,58.72
2022-08-19T06:41:07.682Z,55.42
2022-08-19T06:43:34.921Z,53.55
2022-08-19T06:46:02.083Z,47.00
2022-08-19T06:48:28.603Z,56.03
2022-08-19T06:50:55.555Z,54.07
2022-08-19T06:53:22.255Z,56.25
2022-08-19T06:55:58.539Z,56.85
2022-08-19T06:58:25.624Z,52.60
2022-08-19T07:00:53.233Z,55.42
2022-08-19T07:03:19.769Z,54.08
2022-08-19T07:05:46.367Z,53.08
2022-08-19T07:08:14.597Z,49.27
2022-08-19T07:10:44.814Z,53.42
2022-08-19T07:13:12.509Z,51.00
2022-08-19T07:15:39.828Z,51.85
2022-08-19T07:18:06.680Z,51.25
2022-08-19T07:20:33.919Z,46.45
2022-08-19T07:23:01.207Z,46.58
2022-08-19T07:25:32.443Z,48.22
2022-08-19T07:28:01.637Z,47.35
2022-08-19T07:30:28.492Z,44.20
2022-08-19T07:32:55.525Z,47.95
2022-08-19T07:35:22.938Z,46.30
2022-08-19T07:37:50.134Z,39.37
2022-08-19T07:40:16.862Z,45.30
2022-08-19T07:42:44.513Z,40.07
2022-08-19T07:45:11.108Z,42.92
2022-08-19T07:47:49.776Z,41.83
2022-08-19T07:50:19.591Z,45.20
2022-08-19T07:52:49.268Z,47.95
2022-08-19T07:55:41.550Z,44.53
2022-08-19T07:58:06.111Z,41.85
2022-08-19T08:00:33.076Z,45.13
2022-08-19T08:02:59.602Z,47.00
2022-08-19T08:05:44.672Z,40.90
2022-08-19T08:08:31.413Z,48.03
2022-08-19T08:10:58.981Z,48.30
2022-08-19T08:13:26.531Z,49.47
2022-08-19T08:18:22.556Z,47.10
2022-08-19T08:20:54.776Z,45.28
2022-08-19T08:23:24.725Z,48.28
2022-08-19T08:25:52.277Z,48.42
2022-08-19T08:28:20.082Z,47.42
2022-08-19T08:30:49.051Z,51.03
2022-08-19T08:33:34.067Z,48.22
2022-08-19T08:36:11.905Z,50.80
2022-08-19T08:38:40.146Z,51.05
2022-08-19T08:41:41.543Z,51.97
2022-08-19T08:44:24.662Z,50.10
2022-08-19T08:46:59.107Z,50.42
2022-08-19T08:49:44.839Z,51.42
2022-08-19T08:52:18.549Z,51.35
2022-08-19T08:54:48.955Z,45.83
2022-08-19T08:57:45.822Z,45.33
2022-08-19T09:00:18.179Z,48.03
2022-08-19T09:02:45.335Z,47.72
2022-08-19T09:05:22.595Z,51.92
2022-08-19T09:08:01.529Z,50.92
2022-08-19T09:11:01.681Z,44.63
2022-08-19T09:13:53.084Z,50.58
2022-08-19T09:16:27.908Z,47.30
2022-08-19T09:18:59.051Z,46.60
2022-08-19T09:21:33.432Z,45.53
2022-08-19T09:24:03.598Z,48.92
2022-08-19T09:26:47.579Z,45.85
2022-08-19T09:29:17.911Z,44.13
2022-08-19T09:31:44.750Z,48.33
2022-08-19T09:34:20.983Z,45.33
2022-08-19T09:39:17.935Z,39.88
2022-08-19T09:41:47.473Z,43.33
2022-08-19T09:44:15.690Z,42.65
2022-08-19T09:46:42.316Z,44.27
2022-08-19T09:49:08.861Z,45.17
2022-08-19T09:51:35.469Z,40.73
2022-08-19T09:54:04.942Z,41.73
2022-08-19T09:56:34.086Z,40.28
2022-08-19T09:59:02.365Z,33.45
2022-08-19T10:01:30.989Z,34.05
2022-08-19T10:03:59.304Z,37.42
2022-08-19T10:06:44.052Z,36.03
2022-08-19T10:09:14.610Z,40.25
2022-08-19T10:11:51.036Z,33.50
2022-08-19T10:14:23.575Z,33.20
2022-08-19T10:16:50.473Z,28.90
2022-08-19T10:19:26.005Z,29.55
2022-08-19T10:21:54.251Z,25.05
2022-08-19T10:24:25.218Z,25.73
2022-08-19T10:26:55.829Z,26.58
2022-08-19T10:29:32.582Z,26.15
2022-08-19T10:32:04.214Z,23.73
2022-08-19T10:34:32.104Z,29.38
2022-08-19T10:37:01.860Z,26.67
2022-08-19T10:39:31.380Z,28.27
2022-08-19T10:41:58.541Z,37.30
2022-08-19T10:44:32.223Z,27.08
2022-08-19T10:47:00.041Z,26.00
2022-08-19T10:49:26.796Z,22.90
2022-08-19T10:52:18.762Z,23.92
2022-08-19T10:55:08.321Z,23.02
2022-08-19T10:57:59.216Z,20.92
2022-08-19T11:00:24.410Z,19.83
2022-08-19T11:02:51.815Z,19.95
2022-08-19T11:05:19.710Z,26.38
2022-08-19T11:07:46.944Z,28.23
2022-08-19T11:10:20.890Z,15.98
2022-08-19T11:12:48.247Z,20.58
2022-08-19T11:15:15.111Z,17.77
2022-08-19T11:17:42.520Z,20.05
2022-08-19T11:20:10.055Z,20.00
2022-08-19T11:22:41.607Z,22.08
2022-08-19T11:25:11.383Z,19.92
2022-08-19T11:27:45.692Z,20.50
2022-08-19T11:30:14.386Z,16.63
2022-08-19T11:32:47.057Z,17.65
2022-08-19T11:35:16.894Z,15.68
2022-08-19T11:37:43.437Z,11.55
2022-08-19T11:40:10.542Z,16.30
2022-08-19T11:45:23.135Z,14.73
2022-08-19T11:47:49.888Z,15.52
2022-08-19T11:50:17.270Z,16.17
2022-08-19T11:52:46.002Z,13.32
2022-08-19T11:55:14.184Z,17.25
2022-08-19T11:57:42.203Z,18.38
2022-08-19T12:00:10.557Z,14.30
2022-08-19T12:02:37.118Z,13.15
2022-08-19T12:05:05.481Z,14.15
2022-08-19T12:07:35.284Z,12.75
2022-08-19T12:10:02.085Z,14.43
2022-08-19T12:12:30.424Z,14.70
2022-08-19T12:14:59.248Z,13.75
2022-08-19T12:17:28.106Z,14.98
2022-08-19T12:19:55.107Z,13.20
2022-08-19T12:24:51.747Z,11.25
2022-08-19T12:27:32.271Z,11.35
2022-08-19T12:30:07.483Z,12.05
2022-08-19T12:32:34.273Z,11.85
2022-08-19T12:35:00.844Z,10.93
2022-08-19T12:37:27.760Z,10.75
2022-08-19T12:39:54.300Z,10.80
2022-08-19T12:42:23.105Z,9.63
2022-08-19T12:44:49.644Z,8.80
2022-08-19T12:47:16.172Z,10.15
2022-08-19T12:49:54.182Z,9.23
2022-08-19T12:52:23.701Z,8.98
2022-08-19T12:54:54.698Z,9.65
2022-08-19T12:57:25.876Z,10.52
2022-08-19T13:00:12.537Z,12.30
2022-08-19T13:02:45.238Z,12.85
2022-08-19T13:05:17.611Z,12.48
2022-08-19T13:07:47.041Z,7.70
2022-08-19T13:10:18.958Z,7.72
2022-08-19T13:12:48.206Z,8.70
2022-08-19T13:15:16.938Z,7.35
2022-08-19T13:17:44.984Z,7.75
2022-08-19T13:20:12.347Z,10.70
2022-08-19T13:22:39.490Z,9.80
2022-08-19T13:25:07.883Z,9.48
2022-08-19T13:27:35.073Z,7.65
2022-08-19T13:30:21.431Z,10.98
2022-08-19T13:33:15.362Z,10.75
2022-08-19T13:35:57.051Z,9.98
2022-08-19T13:38:24.479Z,8.43
2022-08-19T13:40:53.487Z,8.88
2022-08-19T13:43:25.312Z,9.48
2022-08-19T13:45:57.113Z,10.23
2022-08-19T13:48:27.361Z,11.98
2022-08-19T13:50:55.222Z,10.23
2022-08-19T13:53:21.968Z,10.15
2022-08-19T13:55:48.618Z,10.02
2022-08-19T13:58:15.541Z,8.00
2022-08-19T14:03:17.079Z,7.95
2022-08-19T14:05:43.772Z,7.82
2022-08-19T14:08:10.381Z,10.85
2022-08-19T14:10:37.019Z,11.95
2022-08-19T14:13:04.668Z,5.57
2022-08-19T14:15:32.223Z,5.57
2022-08-19T14:17:58.827Z,8.55
2022-08-19T14:20:26.461Z,6.75
2022-08-19T14:22:53.902Z,6.63
2022-08-19T14:25:26.657Z,7.55
2022-08-19T14:27:53.578Z,10.32
2022-08-19T14:30:31.821Z,8.30
2022-08-19T14:33:00.612Z,7.03
2022-08-19T14:35:29.127Z,6.05
2022-08-19T14:37:57.092Z,6.45
2022-08-19T14:40:26.945Z,5.07
2022-08-19T14:43:00.498Z,6.88
2022-08-19T14:45:32.279Z,6.65
2022-08-19T14:48:00.339Z,6.10
2022-08-19T14:50:27.642Z,5.13
2022-08-19T14:53:09.070Z,167.27
2022-08-19T14:55:42.869Z,8.77
2022-08-19T14:58:09.946Z,4.63
2022-08-19T15:00:57.101Z,6.07
2022-08-19T15:03:23.695Z,4.88
2022-08-19T15:05:50.357Z,6.25
2022-08-19T15:08:17.029Z,6.20
2022-08-19T15:10:43.609Z,7.13
2022-08-19T15:13:10.900Z,7.63
2022-08-19T15:15:38.280Z,5.43
2022-08-19T15:18:05.037Z,7.75
2022-08-19T15:20:32.045Z,5.25
2022-08-19T15:22:59.993Z,4.07
2022-08-19T15:25:27.450Z,2.90
2022-08-19T15:27:54.573Z,9.52
2022-08-19T15:30:24.308Z,9.18
2022-08-19T15:32:52.537Z,4.00
2022-08-19T15:35:19.555Z,3.85
2022-08-19T15:37:49.918Z,3.78
2022-08-19T15:40:16.684Z,5.80
2022-08-19T15:42:44.694Z,6.53
2022-08-19T15:45:13.494Z,4.57
2022-08-19T15:47:41.333Z,3.65
2022-08-19T15:50:25.994Z,6.18
2022-08-19T15:52:55.676Z,6.47
2022-08-19T15:55:33.649Z,4.65
2022-08-19T15:58:28.880Z,4.63
2022-08-19T16:01:16.633Z,4.63
2022-08-19T16:04:05.862Z,3.70
2022-08-19T16:06:46.516Z,5.35
2022-08-19T16:09:13.751Z,3.47
2022-08-19T16:11:45.614Z,6.43
2022-08-19T16:14:16.882Z,4.13
2022-08-19T16:16:46.766Z,3.97
2022-08-19T16:19:15.927Z,8.07
2022-08-19T16:21:44.805Z,3.05
2022-08-19T16:24:13.867Z,4.97
2022-08-19T16:26:41.990Z,6.28
2022-08-19T16:29:13.092Z,7.47
2022-08-19T16:31:43.595Z,9.98
2022-08-19T16:34:11.261Z,5.85
2022-08-19T16:36:42.031Z,6.65
2022-08-19T16:39:13.250Z,4.65
2022-08-19T16:41:40.946Z,5.75
2022-08-19T16:44:08.735Z,3.47
2022-08-19T16:46:37.238Z,8.68
2022-08-19T16:49:05.269Z,5.45
2022-08-19T16:51:33.818Z,4.50
2022-08-19T16:54:01.373Z,10.32
2022-08-19T16:56:28.983Z,8.25
2022-08-19T16:58:56.023Z,5.70
2022-08-19T17:01:23.263Z,4.10
2022-08-19T17:06:26.133Z,4.40
2022-08-19T17:08:55.935Z,7.88
2022-08-19T17:11:24.703Z,4.18
2022-08-19T17:13:52.361Z,4.80
2022-08-19T17:16:22.213Z,3.60
2022-08-19T17:18:52.823Z,4.97
2022-08-19T17:21:21.161Z,4.82
2022-08-19T17:23:48.779Z,7.07
2022-08-19T17:26:18.537Z,11.85
2022-08-19T17:28:49.089Z,5.70
2022-08-19T17:31:15.715Z,5.38
2022-08-19T17:33:42.330Z,6.80
2022-08-19T17:36:09.560Z,6.40
2022-08-19T17:38:37.713Z,9.07
2022-08-19T17:41:05.848Z,5.20
2022-08-19T17:43:40.033Z,5.38
2022-08-19T17:46:11.203Z,8.35
2022-08-19T17:48:38.917Z,14.38
2022-08-19T17:51:22.378Z,9.38
2022-08-19T17:53:50.904Z,7.15
2022-08-19T17:58:46.644Z,8.80
2022-08-19T18:01:24.677Z,11.50
2022-08-19T18:03:52.897Z,6.78
2022-08-19T18:06:19.404Z,3.30
2022-08-19T18:08:46.786Z,4.53
2022-08-19T18:13:40.897Z,3.40
2022-08-19T18:16:11.226Z,4.63
2022-08-19T18:18:40.089Z,4.10
2022-08-19T18:21:07.581Z,5.55
2022-08-19T18:23:44.242Z,8.45
2022-08-19T18:26:12.451Z,8.02
2022-08-19T18:28:43.281Z,8.20
2022-08-19T18:31:17.239Z,7.22
2022-08-19T18:33:44.741Z,6.40
2022-08-19T18:36:12.017Z,3.92
2022-08-19T18:38:57.386Z,3.25
2022-08-19T18:41:43.071Z,2.10
2022-08-19T18:44:28.469Z,4.55
2022-08-19T18:47:14.154Z,3.92
2022-08-19T18:49:40.742Z,6.13
2022-08-19T18:52:07.604Z,3.80
2022-08-19T18:54:34.514Z,5.35
2022-08-19T18:57:03.405Z,4.03
2022-08-19T18:59:30.385Z,3.08
2022-08-19T19:01:59.029Z,6.22
2022-08-19T19:04:30.870Z,5.05
2022-08-19T19:06:58.039Z,4.03
2022-08-19T19:09:25.270Z,3.50
2022-08-19T19:11:55.382Z,3.35
2022-08-19T19:14:47.565Z,2.47
2022-08-19T19:17:14.748Z,4.97
2022-08-19T19:19:42.762Z,3.03
2022-08-19T19:22:14.702Z,2.75
2022-08-19T19:24:44.537Z,4.85
2022-08-19T19:27:13.224Z,5.93
2022-08-19T19:29:40.937Z,4.93
2022-08-19T19:32:10.323Z,5.25
2022-08-19T19:34:40.682Z,7.32
2022-08-19T19:37:07.260Z,5.10
2022-08-19T19:39:45.869Z,6.70
2022-08-19T19:42:20.700Z,12.60
2022-08-19T19:44:50.562Z,8.30
2022-08-19T19:47:19.170Z,6.25
2022-08-19T19:50:12.558Z,5.82
2022-08-19T19:52:34.048Z,5.38
2022-08-19T19:55:01.579Z,4.60
2022-08-19T19:57:29.440Z,4.45
2022-08-19T19:59:56.369Z,6.68
2022-08-19T20:02:22.939Z,4.30
2022-08-19T20:04:50.515Z,4.03
2022-08-19T20:07:17.728Z,34.92
2022-08-19T20:09:59.249Z,7.40
2022-08-19T20:12:26.937Z,8.13
2022-08-19T20:14:53.606Z,2.77
2022-08-19T20:17:20.686Z,3.30
2022-08-19T20:19:47.806Z,5.05
2022-08-19T20:22:14.686Z,3.10
2022-08-19T20:24:42.699Z,2.90
2022-08-19T20:27:10.756Z,4.00
2022-08-19T20:29:41.562Z,6.13
2022-08-19T20:32:11.189Z,5.03
2022-08-19T20:34:38.533Z,3.00
2022-08-19T20:37:05.402Z,4.45
2022-08-19T20:39:32.213Z,3.35
2022-08-19T20:41:58.837Z,7.00
2022-08-19T20:44:25.661Z,4.65
2022-08-19T20:46:54.735Z,2.60
2022-08-19T20:49:26.977Z,4.80
2022-08-19T20:51:55.048Z,3.67
2022-08-19T20:54:21.698Z,4.60
2022-08-19T20:56:48.318Z,3.10
2022-08-19T20:59:14.991Z,2.47
2022-08-19T21:01:41.490Z,4.37
2022-08-19T21:04:07.990Z,3.80
2022-08-19T21:06:34.745Z,16.20
2022-08-19T21:09:01.269Z,2.90
2022-08-19T21:11:27.853Z,6.22
2022-08-19T21:13:54.369Z,2.40
2022-08-19T21:16:20.915Z,3.05
2022-08-19T21:18:48.352Z,2.58
2022-08-19T21:21:15.874Z,1.73
2022-08-19T21:26:10.620Z,2.75
2022-08-19T21:28:37.120Z,3.63
2022-08-19T21:31:06.340Z,4.32
2022-08-19T21:33:33.000Z,2.85
2022-08-19T21:36:00.245Z,2.97
2022-08-19T21:38:27.281Z,3.15
2022-08-19T21:40:54.215Z,4.20
2022-08-19T21:43:21.028Z,1.83
2022-08-19T21:45:47.923Z,5.60
2022-08-19T21:48:15.046Z,2.60
2022-08-19T21:50:43.602Z,4.32
2022-08-19T21:53:17.799Z,3.08
2022-08-19T21:55:46.625Z,3.58
2022-08-19T21:58:20.237Z,5.72
2022-08-19T22:00:56.461Z,3.47
2022-08-19T22:03:23.842Z,3.95
2022-08-19T22:05:50.842Z,4.57
2022-08-19T22:08:17.478Z,2.95
2022-08-19T22:10:44.103Z,5.18
2022-08-19T22:13:13.151Z,4.70
2022-08-19T22:15:39.707Z,3.40
2022-08-19T22:18:06.258Z,4.07
2022-08-19T22:20:33.091Z,5.20
2022-08-19T22:23:03.840Z,5.13
2022-08-19T22:25:40.443Z,5.00
2022-08-19T22:28:11.054Z,4.33
2022-08-19T22:30:41.823Z,3.65
2022-08-19T22:33:12.460Z,6.05
2022-08-19T22:35:40.748Z,3.97
2022-08-19T22:38:09.233Z,5.63
2022-08-19T22:40:39.595Z,4.72
2022-08-19T22:43:12.095Z,3.53
2022-08-19T22:45:39.233Z,5.70
2022-08-19T22:48:08.185Z,6.97
2022-08-19T22:50:36.200Z,3.70
2022-08-19T22:53:03.544Z,4.82
2022-08-19T22:55:31.100Z,6.95
2022-08-19T23:00:27.517Z,4.57
2022-08-19T23:02:56.285Z,5.38
2022-08-19T23:05:25.432Z,4.13
2022-08-19T23:07:54.226Z,6.28
2022-08-19T23:10:26.752Z,5.20
2022-08-19T23:12:54.204Z,4.45
2022-08-19T23:15:26.081Z,7.57
2022-08-19T23:17:54.323Z,6.07
2022-08-19T23:20:23.257Z,3.97
2022-08-19T23:22:51.567Z,6.05
2022-08-19T23:25:21.844Z,8.15
2022-08-19T23:28:07.729Z,5.00
2022-08-19T23:30:38.157Z,3.00
2022-08-19T23:33:13.068Z,4.70
2022-08-19T23:35:41.126Z,4.75
2022-08-19T23:38:09.463Z,4.95
2022-08-19T23:40:38.805Z,3.40
2022-08-19T23:43:08.109Z,4.68
2022-08-19T23:45:38.904Z,4.97
2022-08-19T23:48:07.210Z,5.53
2022-08-19T23:50:34.447Z,4.25
2022-08-19T23:53:01.887Z,4.15
2022-08-19T23:55:41.054Z,7.00
